Surface observations / UK / EGBB

Quebec | Canada | USA | France | UK | Europe | Elsewhere

Display: Info & Location for EGBB | Help decoding METAR

EGBB BIRMINGHAM AIRPORT -- UK
Raw surface observations for station EGBB
EGBB 161920Z 07006KT CAVOK 18/14 Q1015=
EGBB 161850Z 06005KT 350V090 9000 FEW046 19/14 Q1014=
EGBB 161820Z 06006KT 040V100 9999 SCT043 20/14 Q1014=
EGBB 161750Z 07005KT 360V120 9000 SCT041 20/14 Q1014=
EGBB 161720Z 08008KT 9000 FEW039 20/14 Q1014=
EGBB 161650Z 08008KT 9000 FEW039 21/13 Q1014=
EGBB 161620Z 08009KT 9000 SCT039 20/14 Q1014=
EGBB 161550Z 09009KT 8000 SCT041 21/14 Q1014=
EGBB 161520Z 08009KT 050V120 8000 SCT038 21/14 Q1014=
EGBB 161450Z 08008KT 050V110 7000 FEW025 21/14 Q1014=
EGBB 161420Z 08008KT 6000 FEW021 SCT039 21/15 Q1014=
EGBB 161350Z 09008KT 6000 FEW020 BKN038 20/15 Q1015=
EGBB 161320Z 07008KT 050V120 6000 FEW018 BKN044 19/15 Q1015=
EGBB 161250Z AUTO 08009KT 030V110 6000 FEW016/// SCT034/// BKN041/// 19/15 Q1015=
EGBB 161220Z 09008KT 040V120 7000 SCT016 BKN035 18/14 Q1015=
EGBB 161150Z 09011KT 8000 FEW017 BKN041 18/14 Q1015=
EGBB 161120Z 08009KT 040V120 8000 FEW020 SCT044 18/14 Q1015=
EGBB 161050Z 06007KT 8000 FEW030 SCT049 19/13 Q1016=
EGBB 161020Z 04007KT 360V090 9000 NSC 18/13 Q1016=
EGBB 160950Z 05007KT 010V090 9000 NSC 17/13 Q1016=
EGBB 160920Z 05006KT 360V070 9000 FEW004 15/13 Q1016=
EGBB 160850Z 01006KT 4000 VCFG BKN006 14/14 Q1016=
EGBB 160820Z 36004KT 330V050 0900 R33/1200 FG OVC001 13/13 Q1016=
EGBB 160750Z 01004KT 0250 R33/1000 FG VV/// 13/13 Q1016=
EGBB 160720Z 01004KT 0200 R33/0600 FG VV/// 13/13 Q1016=
EGBB 160650Z 02004KT 340V050 0100 R33/0325 FG VV/// 13/13 Q1016=
EGBB 160620Z 36004KT 330V060 0200 R33/1100 FG OVC001 13/13 Q1016=
EGBB 160550Z 35004KT 0800 R33/P1500 FG OVC001 12/12 Q1015=
EGBB 160520Z 00000KT 0300 R33/P1500 FG BKN001 11/10 Q1015=
EGBB 160450Z 34002KT 2200 BR BCFG NSC 13/12 Q1015=
EGBB 160420Z 00000KT 3300 BR MIFG NSC 13/12 Q1015=
EGBB 160350Z 00000KT 4800 BR MIFG NSC 13/13 Q1016=
EGBB 160320Z 00000KT 5000 BR MIFG NSC 14/13 Q1016=
EGBB 160250Z 32003KT 6000 MIFG NSC 14/13 Q1016=
EGBB 160220Z 32002KT 6000 NSC 15/14 Q1016=
EGBB 160150Z AUTO VRB02KT 3200 HZ NCD 15/14 Q1016=
EGBB 160120Z AUTO 35002KT 3400 HZ NCD 15/14 Q1016=
EGBB 160050Z AUTO VRB02KT 3900 HZ NCD 15/14 Q1016=
EGBB 160020Z 36002KT 8000 MIFG NSC 15/14 Q1016=
EGBB 152350Z 34002KT 8000 MIFG NSC 15/14 Q1016=
EGBB 152320Z 32003KT 9000 MIFG NSC 15/14 Q1016=
EGBB 152250Z 08002KT 9000 FEW020 15/14 Q1016=
EGBB 152220Z 06003KT 9000 SCT026 16/14 Q1016=
EGBB 152150Z 04004KT 9999 FEW032 16/14 Q1016=
EGBB 152120Z 02004KT 9999 FEW032 16/14 Q1016=
EGBB 152050Z VRB03KT 9999 FEW035 17/14 Q1016=
EGBB 152020Z VRB03KT 9999 SCT024 17/14 Q1016=
EGBB 151950Z 07004KT 010V100 9999 FEW025 17/14 Q1016=
EGBB 151920Z 36003KT 9999 SCT049 17/14 Q1016=